Time;durP1;ratioP1;P1;durP2;ratioP2;P2;SDS_P1;SDS_P2;PMS_P1;PMS_P2;Temp;Humidity;BMP_temperature;BMP_pressure;BME280_temperature;BME280_humidity;BME280_pressure;Samples;Min_cycle;Max_cycle;Signal;HPM_P1;HPM_P2
2023/12/03 00:01:54;;;;;;;;;;;11.80;39.40;;;11.94;42.06;100911.59;5073239;28;19924;-34
2023/12/03 00:04:22;;;;;;;;;;;11.70;39.30;;;11.94;42.34;100911.59;5072878;28;20287;-35
2023/12/03 00:06:50;;;;;;;;;;;11.70;39.30;;;11.93;42.23;100914.81;5073085;28;19929;-34
2023/12/03 00:09:19;;;;;;;;;;;11.70;39.30;;;11.93;42.32;100919.84;5073403;28;19924;-34
2023/12/03 00:11:47;;;;;;;;;;;11.70;39.40;;;11.95;42.35;100918.41;5073181;28;20338;-35
2023/12/03 00:14:15;;;;;;;;;;;11.70;39.40;;;11.94;41.89;100910.69;5072662;28;19925;-34
2023/12/03 00:16:43;;;;;;;;;;;11.70;39.30;;;11.95;42.35;100918.41;5065298;28;19925;-35
2023/12/03 00:19:11;;;;;;;;;;;11.80;39.40;;;11.92;42.86;100923.03;5073025;28;20011;-35
2023/12/03 00:21:39;;;;;;;;;;;11.70;39.30;;;11.93;42.86;100924.84;5073205;28;19982;-34
2023/12/03 00:24:07;;;;;;;;;;;11.80;39.40;;;11.92;42.62;100923.03;5072776;28;19944;-35
2023/12/03 00:26:37;;;;;;;;;;;11.80;39.40;;;11.94;41.96;100916.63;5072796;28;20032;-34
2023/12/03 00:29:05;;;;;;;;;;;11.80;39.40;;;11.96;42.88;100920.22;5072934;28;19931;-35
2023/12/03 00:31:33;;;;;;;;;;;11.70;39.30;;;11.95;42.60;100915.03;5072234;28;19928;-35
2023/12/03 00:34:02;;;;;;;;;;;11.80;39.40;;;11.94;41.97;100921.66;5072405;28;19935;-34
2023/12/03 00:36:30;;;;;;;;;;;11.80;39.40;;;11.98;42.51;100912.88;5072861;28;19924;-35
2023/12/03 00:38:58;;;;;;;;;;;11.80;39.40;;;11.95;41.91;100918.41;5072796;28;19978;-34
2023/12/03 00:41:26;;;;;;;;;;;11.80;39.40;;;11.95;41.82;100917.53;5072458;28;19924;-35
2023/12/03 00:43:55;;;;;;;;;;;11.80;39.40;;;11.97;42.21;100916.09;5072163;28;20037;-35
2023/12/03 00:46:23;;;;;;;;;;;11.70;39.30;;;11.97;41.96;100921.13;5072156;28;20035;-35
2023/12/03 00:48:51;;;;;;;;;;;11.80;39.40;;;11.89;41.86;100912.59;5072341;28;19931;-34
2023/12/03 00:51:19;;;;;;;;;;;11.80;39.40;;;11.92;42.85;100913.00;5072250;28;19932;-35
2023/12/03 00:53:47;;;;;;;;;;;11.80;39.40;;;11.97;42.61;100932.06;5071826;28;20296;-34
2023/12/03 00:56:15;;;;;;;;;;;11.80;39.50;;;11.98;42.98;100932.97;5072134;28;20356;-34
2023/12/03 00:58:43;;;;;;;;;;;11.80;39.50;;;11.98;42.55;100923.84;5071953;28;20030;-35
2023/12/03 01:01:12;;;;;;;;;;;11.80;39.50;;;11.99;42.42;100924.75;5072542;28;19928;-35
2023/12/03 01:03:40;;;;;;;;;;;11.70;39.50;;;11.96;42.41;100930.25;5071783;28;20459;-34
2023/12/03 01:06:08;;;;;;;;;;;11.70;39.40;;;11.95;42.96;100928.44;5072229;28;19986;-35
2023/12/03 01:08:36;;;;;;;;;;;11.80;39.40;;;11.94;42.01;100931.69;5071926;28;19924;-35
2023/12/03 01:11:05;;;;;;;;;;;11.70;39.40;;;11.97;42.42;100932.06;5071996;28;20027;-35
2023/12/03 01:13:33;;;;;;;;;;;11.80;39.40;;;11.96;42.93;100935.28;5071411;28;19929;-35
2023/12/03 01:16:01;;;;;;;;;;;11.80;39.40;;;11.98;42.51;100938.91;5071799;28;19986;-35
2023/12/03 01:18:30;;;;;;;;;;;11.80;39.40;;;11.97;42.45;100937.09;5072494;28;19993;-35
2023/12/03 01:20:58;;;;;;;;;;;11.70;39.40;;;11.97;42.13;100938.69;5072152;28;19977;-35
2023/12/03 01:23:26;;;;;;;;;;;11.80;39.50;;;12.00;42.42;100937.50;5072650;28;19924;-35
2023/12/03 01:25:54;;;;;;;;;;;11.80;39.40;;;11.98;42.24;100938.91;5073446;28;19929;-35
2023/12/03 01:28:22;;;;;;;;;;;11.80;39.40;;;11.98;42.69;100948.03;5075576;28;19978;-35
2023/12/03 01:30:50;;;;;;;;;;;11.80;39.40;;;11.99;42.44;100945.72;5079757;28;19974;-35
2023/12/03 01:33:18;;;;;;;;;;;11.80;39.40;;;12.00;42.66;100952.56;5079079;28;19925;-35
2023/12/03 01:35:47;;;;;;;;;;;11.80;39.40;;;11.99;42.49;100955.78;5065173;28;19925;-35
2023/12/03 01:38:15;;;;;;;;;;;11.80;39.40;;;11.99;42.26;100960.81;5072289;28;19971;-35
2023/12/03 01:40:51;;;;;;;;;;;11.80;39.40;;;11.99;42.39;100958.28;5071807;28;20395;-35
2023/12/03 01:43:19;;;;;;;;;;;11.80;39.40;;;12.00;42.56;100957.59;5073639;28;19931;-35
2023/12/03 01:45:47;;;;;;;;;;;11.80;39.40;;;11.99;42.28;100960.81;5067719;28;19963;-35
2023/12/03 01:48:16;;;;;;;;;;;11.80;39.40;;;12.01;42.85;100956.84;5076171;28;19993;-35
2023/12/03 01:50:44;;;;;;;;;;;11.80;39.40;;;12.01;42.29;100959.38;5075589;28;19925;-35
2023/12/03 01:53:13;;;;;;;;;;;11.80;39.50;;;11.97;42.33;100962.19;5075570;28;20023;-35
2023/12/03 01:55:41;;;;;;;;;;;11.80;39.40;;;11.95;42.46;100963.59;5075706;28;19931;-35
2023/12/03 01:58:09;;;;;;;;;;;11.80;39.40;;;11.96;42.41;100970.44;5075628;28;20019;-34
2023/12/03 02:00:36;;;;;;;;;;;11.80;39.50;;;11.94;42.97;100966.84;5075689;28;19925;-35
2023/12/03 02:03:06;;;;;;;;;;;11.80;39.50;;;11.93;42.35;100965.03;5075566;28;19924;-36
2023/12/03 02:05:34;;;;;;;;;;;11.80;39.50;;;11.93;42.89;100965.03;5076708;28;20030;-35
2023/12/03 02:08:02;;;;;;;;;;;11.80;39.50;;;11.92;42.80;100972.38;5077016;28;19924;-35
2023/12/03 02:10:31;;;;;;;;;;;11.80;39.50;;;11.92;42.38;100968.25;5075731;28;20459;-35
2023/12/03 02:12:59;;;;;;;;;;;11.70;39.40;;;11.93;42.43;100975.09;5075568;28;20011;-35
2023/12/03 02:15:28;;;;;;;;;;;11.80;39.50;;;11.95;42.86;100973.66;5106975;22;19930;-35
2023/12/03 02:17:56;;;;;;;;;;;11.80;39.50;;;11.93;42.42;100970.06;5095998;28;19924;-36
2023/12/03 02:20:24;;;;;;;;;;;11.70;39.50;;;11.95;42.42;100972.78;5096350;28;19977;-35
2023/12/03 02:22:59;;;;;;;;;;;11.70;39.50;;;11.95;42.95;100981.19;5096596;28;19924;-35
2023/12/03 02:25:27;;;;;;;;;;;11.80;39.50;;;11.95;42.23;100976.16;5086792;28;19928;-36
2023/12/03 02:27:55;;;;;;;;;;;11.70;39.50;;;11.95;42.55;100982.81;5075703;28;19968;-36
2023/12/03 02:30:23;;;;;;;;;;;11.70;39.50;;;11.95;42.86;100983.69;5075472;28;19924;-36
2023/12/03 02:32:51;;;;;;;;;;;11.70;39.50;;;11.94;42.59;100976.88;5067777;28;19929;-35
2023/12/03 02:35:19;;;;;;;;;;;11.80;39.60;;;11.97;42.86;100986.41;5075098;28;19924;-36
2023/12/03 02:37:47;;;;;;;;;;;11.80;39.50;;;11.96;42.42;100975.47;5075237;28;20298;-36
2023/12/03 02:40:16;;;;;;;;;;;11.80;39.50;;;11.99;42.89;100985.00;5075528;28;19931;-36
2023/12/03 02:42:44;;;;;;;;;;;11.80;39.50;;;11.97;42.72;100987.31;5074612;28;20017;-35
2023/12/03 02:45:12;;;;;;;;;;;11.80;39.50;;;11.97;42.96;100991.44;5074976;28;19936;-35
2023/12/03 02:47:40;;;;;;;;;;;11.80;39.50;;;11.97;42.11;100992.34;5075477;28;19931;-35
2023/12/03 02:50:09;;;;;;;;;;;11.80;39.50;;;12.00;42.66;100992.75;5075368;28;19928;-35
2023/12/03 02:52:36;;;;;;;;;;;11.80;39.40;;;11.99;42.35;100995.06;5075144;28;20015;-35
2023/12/03 02:55:05;;;;;;;;;;;11.80;39.50;;;11.99;42.71;100993.44;5074500;28;20019;-36
2023/12/03 02:57:34;;;;;;;;;;;11.80;39.50;;;12.00;42.58;101000.28;5074669;28;20031;-35
2023/12/03 03:00:02;;;;;;;;;;;11.80;39.50;;;11.99;43.08;100995.06;5075051;28;20141;-36
2023/12/03 03:02:30;;;;;;;;;;;11.80;39.50;;;12.00;43.07;101002.78;5074907;28;19931;-36
2023/12/03 03:04:58;;;;;;;;;;;11.80;39.50;;;12.00;43.00;101002.78;5075085;28;19925;-35
2023/12/03 03:07:25;;;;;;;;;;;11.80;39.50;;;12.00;42.90;101006.91;5075005;28;19932;-35
2023/12/03 03:09:53;;;;;;;;;;;11.80;39.50;;;11.98;42.74;100999.16;5066666;28;19925;-35
2023/12/03 03:12:21;;;;;;;;;;;11.80;39.50;;;12.01;42.82;100999.56;5074927;28;20023;-35
2023/12/03 03:14:50;;;;;;;;;;;11.80;39.50;;;12.00;42.33;101005.31;5076100;28;20007;-37
2023/12/03 03:17:18;;;;;;;;;;;11.80;39.50;;;12.00;42.89;101007.81;5079589;28;19928;-37
2023/12/03 03:19:46;;;;;;;;;;;11.80;39.50;;;11.99;41.98;100998.47;5075350;28;19925;-37
2023/12/03 03:22:14;;;;;;;;;;;11.80;39.50;;;11.97;42.62;101004.91;5076318;28;19924;-37
2023/12/03 03:24:42;;;;;;;;;;;11.80;39.50;;;11.97;42.52;100996.47;5074119;28;19935;-37
2023/12/03 03:27:10;;;;;;;;;;;11.80;40.10;;;11.97;42.64;101002.38;5074878;28;19924;-37
2023/12/03 03:29:38;;;;;;;;;;;11.80;39.50;;;11.99;43.07;101006.00;5074385;28;19932;-37
2023/12/03 03:32:08;;;;;;;;;;;11.80;39.50;;;11.98;41.84;101006.72;5074576;28;19924;-37
2023/12/03 03:34:36;;;;;;;;;;;11.80;39.50;;;11.98;42.65;101009.22;5073939;28;20373;-34
2023/12/03 03:37:05;;;;;;;;;;;11.80;39.50;;;12.00;42.54;101012.84;5074250;28;20015;-34
2023/12/03 03:39:33;;;;;;;;;;;11.80;39.50;;;11.99;42.97;101012.63;5074156;28;19979;-34
2023/12/03 03:42:01;;;;;;;;;;;11.80;40.10;;;11.98;42.04;101024.28;5074536;28;19994;-34
2023/12/03 03:44:29;;;;;;;;;;;11.80;39.50;;;11.98;42.05;101024.28;5074313;28;19925;-34
2023/12/03 03:46:56;;;;;;;;;;;11.80;39.50;;;11.99;42.81;101031.13;5074405;28;20007;-35
2023/12/03 03:49:26;;;;;;;;;;;11.80;39.50;;;11.98;42.39;101024.28;5073996;28;19925;-35
2023/12/03 03:51:55;;;;;;;;;;;11.80;39.50;;;11.97;42.59;101027.50;5065948;28;19924;-35
2023/12/03 03:54:22;;;;;;;;;;;11.80;39.50;;;11.98;42.31;101029.31;5073416;28;20277;-35
2023/12/03 03:56:50;;;;;;;;;;;11.80;39.50;;;11.98;42.62;101034.34;5073821;28;19993;-35
2023/12/03 03:59:18;;;;;;;;;;;11.80;39.50;;;11.93;42.28;101035.34;5073063;28;20378;-36
2023/12/03 04:01:46;;;;;;;;;;;11.80;39.40;;;11.99;42.79;101041.16;5073054;28;20398;-35
2023/12/03 04:04:14;;;;;;;;;;;11.80;39.50;;;11.98;42.64;101041.88;5072720;28;19924;-35
2023/12/03 04:06:45;;;;;;;;;;;11.80;39.50;;;11.97;42.48;101045.06;5072656;28;19925;-35
2023/12/03 04:09:13;;;;;;;;;;;11.80;39.50;;;11.95;42.08;101043.97;5073029;28;19925;-35
2023/12/03 04:11:42;;;;;;;;;;;11.80;39.50;;;11.96;42.47;101047.38;5072549;28;20451;-35
2023/12/03 04:14:11;;;;;;;;;;;11.80;39.50;;;11.96;42.35;101045.78;5072751;28;19967;-35
2023/12/03 04:16:39;;;;;;;;;;;11.80;39.50;;;11.97;42.57;101042.56;5079728;28;19931;-35
2023/12/03 04:19:08;;;;;;;;;;;11.80;39.40;;;11.97;42.54;101042.56;5073068;28;20360;-35
2023/12/03 04:21:36;;;;;;;;;;;11.80;39.50;;;11.96;42.80;101047.38;5072722;28;19925;-34
2023/12/03 04:24:06;;;;;;;;;;;11.80;39.50;;;11.94;42.58;101047.19;5072808;28;19928;-36
2023/12/03 04:26:34;;;;;;;;;;;11.80;39.50;;;11.95;42.51;101043.97;5072429;28;19986;-35
2023/12/03 04:29:02;;;;;;;;;;;11.70;39.40;;;11.93;42.42;101050.41;5072431;28;19931;-35
2023/12/03 04:31:30;;;;;;;;;;;11.80;40.10;;;11.92;42.97;101048.59;5072623;28;19924;-35
2023/12/03 04:33:57;;;;;;;;;;;11.80;39.40;;;11.92;42.84;101048.59;5064614;28;19932;-36
2023/12/03 04:36:27;;;;;;;;;;;11.70;39.40;;;11.94;42.54;101052.22;5072424;28;19924;-36
2023/12/03 04:38:55;;;;;;;;;;;11.70;39.40;;;11.93;42.42;101050.41;5072479;28;19931;-35
2023/12/03 04:41:25;;;;;;;;;;;11.80;39.50;;;11.93;42.33;101055.44;5072494;28;20031;-36
2023/12/03 04:43:53;;;;;;;;;;;11.80;39.50;;;11.95;42.55;101054.00;5071763;28;19979;-35
2023/12/03 04:46:21;;;;;;;;;;;11.80;39.50;;;11.93;42.79;101060.47;5072272;28;20426;-35
2023/12/03 04:48:49;;;;;;;;;;;11.80;40.10;;;11.96;42.94;101065.88;5072064;28;20410;-35
2023/12/03 04:51:16;;;;;;;;;;;11.80;39.40;;;11.96;42.59;101060.84;5072399;28;19970;-35
2023/12/03 04:53:44;;;;;;;;;;;11.80;39.50;;;11.98;42.02;101072.00;5071937;28;19925;-35
2023/12/03 04:56:12;;;;;;;;;;;11.80;39.40;;;11.98;42.65;101077.03;5071994;28;19924;-34
2023/12/03 04:58:42;;;;;;;;;;;11.80;39.40;;;11.99;42.11;101078.84;5072066;28;19924;-35
2023/12/03 05:01:10;;;;;;;;;;;11.80;39.40;;;12.00;42.22;101078.13;5072447;28;20277;-36
2023/12/03 05:03:37;;;;;;;;;;;11.80;39.40;;;11.97;42.15;101082.75;5072161;28;19925;-36
2023/12/03 05:06:06;;;;;;;;;;;11.80;39.40;;;11.98;42.57;101081.13;5071916;28;19977;-35
2023/12/03 05:08:34;;;;;;;;;;;11.80;39.40;;;11.97;42.68;101089.38;5071975;28;20402;-35
2023/12/03 05:11:03;;;;;;;;;;;11.80;39.40;;;11.97;42.28;101089.38;5072281;28;19947;-36
2023/12/03 05:13:31;;;;;;;;;;;11.80;39.40;;;11.98;42.77;101089.59;5071925;28;19982;-35
2023/12/03 05:16:02;;;;;;;;;;;11.80;39.40;;;11.95;41.93;101084.13;5079785;28;19932;-35
2023/12/03 05:18:30;;;;;;;;;;;11.80;39.40;;;11.97;42.88;101082.75;5071927;28;19928;-35
2023/12/03 05:20:58;;;;;;;;;;;11.80;39.40;;;11.94;42.67;101082.34;5063839;28;19947;-35
2023/12/03 05:23:26;;;;;;;;;;;11.80;39.40;;;11.94;42.83;101082.34;5071787;28;20044;-36
2023/12/03 05:25:54;;;;;;;;;;;11.80;39.50;;;11.94;42.39;101077.34;5071673;28;20459;-35
2023/12/03 05:28:23;;;;;;;;;;;11.70;39.40;;;11.94;42.04;101087.38;5071903;28;19954;-36
2023/12/03 05:30:51;;;;;;;;;;;11.80;39.50;;;11.80;42.37;101067.09;5071761;28;19944;-35
2023/12/03 05:33:20;;;;;;;;;;;11.80;39.50;;;11.94;42.55;101089.91;5071671;28;20015;-35
2023/12/03 05:35:48;;;;;;;;;;;11.80;39.50;;;11.95;41.90;101094.19;5071189;28;20023;-35
2023/12/03 05:38:16;;;;;;;;;;;11.80;39.50;;;11.95;42.92;101094.19;5072054;28;19925;-35
2023/12/03 05:40:44;;;;;;;;;;;11.80;39.50;;;11.95;42.35;101094.19;5071704;28;19931;-35
2023/12/03 05:43:12;;;;;;;;;;;11.70;39.50;;;11.94;42.82;101097.44;5071791;28;20023;-36
2023/12/03 05:45:40;;;;;;;;;;;11.70;39.40;;;11.92;42.46;101103.84;5071561;28;19933;-36
2023/12/03 05:48:08;;;;;;;;;;;11.80;39.50;;;11.95;42.81;101106.75;5071920;28;19970;-36
2023/12/03 05:50:37;;;;;;;;;;;11.80;39.50;;;11.93;42.08;101105.66;5072771;28;19932;-36
2023/12/03 05:53:05;;;;;;;;;;;11.80;39.50;;;11.92;42.79;101113.88;5072488;28;19951;-35
2023/12/03 05:55:33;;;;;;;;;;;11.70;39.50;;;11.93;42.21;101105.66;5071372;28;19932;-36
2023/12/03 05:58:01;;;;;;;;;;;11.80;39.60;;;11.94;42.90;101107.47;5063538;28;20008;-35
2023/12/03 06:00:29;;;;;;;;;;;11.80;39.60;;;11.90;42.68;101110.25;5071731;28;19931;-36
2023/12/03 06:02:59;;;;;;;;;;;11.80;39.60;;;11.93;42.87;101108.16;5071509;28;19931;-35
2023/12/03 06:05:27;;;;;;;;;;;11.80;39.60;;;11.94;42.52;101122.53;5071797;28;20019;-35
2023/12/03 06:07:56;;;;;;;;;;;11.80;39.60;;;11.94;42.58;101121.63;5071271;28;19925;-35
2023/12/03 06:10:24;;;;;;;;;;;11.70;39.50;;;11.92;43.32;101121.41;5071414;28;19924;-35
2023/12/03 06:12:52;;;;;;;;;;;11.80;39.50;;;11.96;42.57;101115.19;5071324;28;19928;-35
2023/12/03 06:15:20;;;;;;;;;;;11.80;39.50;;;11.96;42.02;101123.63;5076934;28;19925;-35
2023/12/03 06:17:48;;;;;;;;;;;11.80;39.50;;;11.98;42.45;101119.72;5073265;28;19925;-36
2023/12/03 06:20:17;;;;;;;;;;;11.80;39.50;;;11.98;42.05;101119.72;5072278;28;19931;-35
2023/12/03 06:22:44;;;;;;;;;;;11.80;39.50;;;12.03;42.55;101133.78;5062866;28;20296;-35
2023/12/03 06:25:14;;;;;;;;;;;11.80;39.50;;;12.03;42.09;101128.75;5071112;28;19929;-35
2023/12/03 06:27:42;;;;;;;;;;;11.90;39.50;;;12.05;42.75;101134.91;5071507;28;19935;-35
2023/12/03 06:30:11;;;;;;;;;;;11.80;39.40;;;12.07;42.23;101128.47;5074174;28;19925;-36
2023/12/03 06:32:39;;;;;;;;;;;11.90;39.60;;;12.08;42.33;101137.78;5074769;28;19929;-35
2023/12/03 06:35:08;;;;;;;;;;;11.90;39.50;;;12.09;42.16;101144.63;5074938;28;19924;-36
2023/12/03 06:37:36;;;;;;;;;;;11.90;39.50;;;12.11;42.22;101141.41;5074720;28;19978;-35
2023/12/03 06:40:04;;;;;;;;;;;11.90;39.50;;;12.11;41.91;101136.41;5066878;28;19970;-36
2023/12/03 06:42:33;;;;;;;;;;;11.90;39.50;;;12.12;42.47;101143.22;5074632;28;19978;-35
2023/12/03 06:45:01;;;;;;;;;;;11.90;39.40;;;12.11;41.91;101137.31;5074634;28;19953;-35
2023/12/03 06:47:29;;;;;;;;;;;11.90;39.40;;;12.11;42.78;101141.41;5075047;28;19925;-35
2023/12/03 06:49:57;;;;;;;;;;;11.90;39.50;;;12.11;42.38;101147.34;5074854;28;19963;-35
2023/12/03 06:52:25;;;;;;;;;;;11.80;39.40;;;12.04;42.64;101145.63;5074840;28;19931;-35
2023/12/03 06:54:52;;;;;;;;;;;11.90;39.50;;;12.03;42.14;101146.34;5074790;28;20026;-35
2023/12/03 06:57:20;;;;;;;;;;;11.90;39.60;;;12.00;42.83;101148.47;5074840;28;19935;-34
2023/12/03 06:59:50;;;;;;;;;;;11.80;39.50;;;11.97;42.62;101153.06;5074638;28;20103;-36
2023/12/03 07:02:17;;;;;;;;;;;11.80;39.50;;;11.96;42.76;101151.25;5074850;28;19930;-36
2023/12/03 07:04:45;;;;;;;;;;;11.80;39.60;;;11.93;43.22;101148.34;5073969;28;20493;-37
2023/12/03 07:07:13;;;;;;;;;;;11.80;39.60;;;11.92;43.34;101149.03;5074723;28;19929;-37
2023/12/03 07:09:41;;;;;;;;;;;11.80;39.70;;;11.90;42.79;101155.47;5073949;28;19978;-36
2023/12/03 07:12:09;;;;;;;;;;;11.70;39.70;;;11.91;42.50;101156.38;5074981;28;19924;-36
2023/12/03 07:14:39;;;;;;;;;;;11.80;39.80;;;11.90;42.81;101160.47;5074058;28;20398;-36
2023/12/03 07:17:08;;;;;;;;;;;11.70;39.70;;;11.90;42.46;101175.56;5066722;28;20031;-36
2023/12/03 07:19:36;;;;;;;;;;;11.70;39.70;;;11.92;42.76;101173.25;5074024;28;19924;-37
2023/12/03 07:22:04;;;;;;;;;;;11.70;39.70;;;11.92;42.57;101179.19;5073817;28;19930;-37
2023/12/03 07:24:32;;;;;;;;;;;11.70;39.70;;;11.90;42.98;101170.53;5073993;28;19932;-37
2023/12/03 07:27:00;;;;;;;;;;;11.80;39.70;;;11.95;42.21;101183.72;5073884;28;20296;-36
2023/12/03 07:29:28;;;;;;;;;;;11.80;39.70;;;11.98;42.70;101185.00;5073889;28;19924;-36
2023/12/03 07:31:56;;;;;;;;;;;11.80;39.70;;;12.00;43.21;101183.63;5074188;28;20387;-35
2023/12/03 07:34:26;;;;;;;;;;;11.80;39.70;;;12.03;42.80;101190.63;5073492;28;19936;-36
2023/12/03 07:36:54;;;;;;;;;;;11.80;39.60;;;12.04;42.79;101185.81;5073380;28;19928;-37
2023/12/03 07:39:23;;;;;;;;;;;11.90;39.70;;;12.04;42.57;101184.91;5073541;28;20400;-37
2023/12/03 07:41:52;;;;;;;;;;;11.90;39.70;;;12.04;42.55;101200.91;5072702;28;20024;-37
2023/12/03 07:44:20;;;;;;;;;;;11.80;39.60;;;12.07;42.50;101186.25;5074188;28;19970;-37
2023/12/03 07:46:48;;;;;;;;;;;11.90;39.60;;;12.07;42.62;101186.25;5073341;28;19931;-36
2023/12/03 07:49:16;;;;;;;;;;;11.90;39.70;;;12.06;42.58;101184.44;5073356;28;19931;-36
2023/12/03 07:51:47;;;;;;;;;;;11.90;39.60;;;12.06;42.95;101193.56;5073858;28;19928;-37
2023/12/03 07:54:15;;;;;;;;;;;11.90;39.60;;;12.05;42.91;101191.75;5074538;28;20383;-36
2023/12/03 07:56:43;;;;;;;;;;;11.90;39.60;;;12.06;42.99;101199.50;5073853;28;19940;-36
2023/12/03 07:59:12;;;;;;;;;;;11.90;39.70;;;12.04;42.18;101205.91;5073624;28;19925;-36
2023/12/03 08:01:40;;;;;;;;;;;11.80;39.60;;;12.02;42.30;101202.28;5073493;28;19971;-36
2023/12/03 08:04:08;;;;;;;;;;;11.90;39.70;;;12.04;42.57;101200.91;5065685;28;19967;-36
2023/12/03 08:06:36;;;;;;;;;;;11.80;39.60;;;11.99;42.48;101196.88;5073191;28;19925;-36
2023/12/03 08:09:05;;;;;;;;;;;11.80;39.60;;;12.00;42.50;101193.66;5064817;28;20024;-36
2023/12/03 08:11:33;;;;;;;;;;;11.80;39.60;;;11.97;42.45;101208.31;5073029;28;19935;-37
2023/12/03 08:14:02;;;;;;;;;;;11.80;39.70;;;11.96;42.55;101195.53;5072744;28;19978;-36
2023/12/03 08:16:30;;;;;;;;;;;11.80;39.70;;;11.99;42.56;101206.91;5078730;22;20363;-34
2023/12/03 08:18:58;;;;;;;;;;;11.80;39.70;;;11.97;43.01;101213.34;5052746;28;20029;-34
2023/12/03 08:21:26;;;;;;;;;;;11.80;39.70;;;11.96;42.71;101206.50;5052778;28;19940;-35
2023/12/03 08:23:54;;;;;;;;;;;11.80;39.70;;;11.95;42.22;101207.19;5052320;28;20334;-35
2023/12/03 08:26:24;;;;;;;;;;;11.80;39.70;;;11.93;42.97;101211.13;5052623;28;19925;-35
2023/12/03 08:28:52;;;;;;;;;;;11.80;39.70;;;11.95;42.70;101208.81;5052592;28;20012;-35
2023/12/03 08:31:22;;;;;;;;;;;11.80;39.70;;;11.94;42.93;101212.94;5053001;28;19931;-35
2023/12/03 08:33:50;;;;;;;;;;;11.80;39.70;;;11.92;43.33;101209.31;5052432;28;19971;-35
2023/12/03 08:36:18;;;;;;;;;;;11.80;39.70;;;11.90;42.81;101210.69;5052904;28;19929;-35
2023/12/03 08:38:48;;;;;;;;;;;11.80;39.70;;;11.90;43.28;101210.69;5052463;28;20039;-35
2023/12/03 08:41:16;;;;;;;;;;;11.80;39.70;;;11.92;42.74;101219.34;5052783;28;19972;-35
2023/12/03 08:43:45;;;;;;;;;;;11.80;39.80;;;11.86;42.99;101230.19;5052419;28;20350;-35
2023/12/03 08:46:13;;;;;;;;;;;11.70;39.80;;;11.75;43.08;101226.25;5044651;28;19935;-36
2023/12/03 08:48:41;;;;;;;;;;;11.60;39.80;;;11.65;42.85;101240.72;5052440;28;20036;-37
2023/12/03 08:51:09;;;;;;;;;;;11.50;39.90;;;11.56;43.71;101234.47;5051905;28;19951;-36
2023/12/03 08:53:37;;;;;;;;;;;11.50;40.10;;;11.49;43.95;101236.84;5052264;28;19964;-35
2023/12/03 08:56:06;;;;;;;;;;;11.40;40.20;;;11.43;43.46;101246.06;5052602;28;20020;-35
2023/12/03 08:58:34;;;;;;;;;;;11.40;40.40;;;11.38;43.65;101247.06;5052375;28;20020;-36
2023/12/03 09:01:03;;;;;;;;;;;11.30;40.40;;;11.33;44.22;101253.94;5052047;28;20400;-35
2023/12/03 09:03:31;;;;;;;;;;;11.20;40.40;;;11.31;44.31;101254.44;5051939;28;19948;-37
2023/12/03 09:05:59;;;;;;;;;;;11.20;40.50;;;11.31;43.75;101259.44;5052007;28;20008;-35
2023/12/03 09:08:27;;;;;;;;;;;11.20;40.60;;;11.31;43.67;101266.97;5051896;28;20392;-34
2023/12/03 09:10:55;;;;;;;;;;;11.20;40.70;;;11.31;44.32;101269.50;5052396;28;20353;-35
2023/12/03 09:13:24;;;;;;;;;;;11.10;40.70;;;11.31;44.10;101269.50;5052341;28;19967;-34
2023/12/03 09:15:52;;;;;;;;;;;11.10;40.70;;;11.34;43.79;101280.84;5055804;28;19924;-35
2023/12/03 09:18:21;;;;;;;;;;;11.10;40.70;;;11.40;44.22;101274.13;5052738;28;20032;-36
2023/12/03 09:20:49;;;;;;;;;;;11.20;40.60;;;11.57;43.79;101271.44;5052517;28;19990;-36
2023/12/03 09:23:17;;;;;;;;;;;11.40;40.50;;;11.78;43.17;101284.38;5052607;28;19925;-35
2023/12/03 09:25:44;;;;;;;;;;;11.60;40.20;;;11.99;43.10;101279.75;5055252;28;20414;-35
2023/12/03 09:28:12;;;;;;;;;;;11.70;39.80;;;12.13;42.93;101280.69;5047306;28;20412;-36
2023/12/03 09:30:40;;;;;;;;;;;11.90;39.60;;;12.23;42.20;101273.66;5052732;28;19924;-36
2023/12/03 09:33:08;;;;;;;;;;;12.00;39.30;;;12.29;41.74;101271.97;5051470;28;20331;-34
2023/12/03 09:35:38;;;;;;;;;;;12.10;39.20;;;12.37;42.14;101274.81;5051536;28;19925;-34
2023/12/03 09:38:06;;;;;;;;;;;12.20;39.00;;;12.43;41.56;101277.22;5051536;28;19924;-35
2023/12/03 09:40:34;;;;;;;;;;;12.20;38.90;;;12.49;41.29;101280.53;5051861;28;20039;-35
2023/12/03 09:43:05;;;;;;;;;;;12.30;38.90;;;12.52;41.07;101285.97;5051596;28;20016;-35
2023/12/03 09:45:33;;;;;;;;;;;12.30;38.80;;;12.53;41.54;101285.25;5051737;28;19968;-35
2023/12/03 09:48:01;;;;;;;;;;;12.30;38.80;;;12.55;41.99;101286.38;5051675;28;19924;-35
2023/12/03 09:50:30;;;;;;;;;;;12.40;38.80;;;12.59;41.23;101278.53;5051663;28;19925;-35
2023/12/03 09:52:59;;;;;;;;;;;12.40;38.70;;;12.60;41.16;101279.44;5051609;28;19968;-35
2023/12/03 09:55:27;;;;;;;;;;;12.40;38.70;;;12.59;41.60;101278.53;5051427;28;19925;-35
2023/12/03 09:57:55;;;;;;;;;;;12.40;38.70;;;12.55;41.43;101281.34;5051322;28;19929;-35
2023/12/03 10:00:23;;;;;;;;;;;12.40;38.80;;;12.54;41.63;101289.59;5051269;28;19932;-35
2023/12/03 10:02:53;;;;;;;;;;;12.40;38.80;;;12.56;41.26;101287.28;5051358;28;19928;-36
2023/12/03 10:05:21;;;;;;;;;;;12.40;38.80;;;12.51;41.06;101283.28;5054928;28;19929;-35
2023/12/03 10:07:49;;;;;;;;;;;12.30;38.80;;;12.46;41.14;101290.19;5055338;28;20020;-34
2023/12/03 10:10:19;;;;;;;;;;;12.30;39.60;;;12.44;42.20;101286.59;5055631;28;19986;-36
2023/12/03 10:12:48;;;;;;;;;;;12.20;38.90;;;12.41;41.71;101277.00;5055387;28;19929;-35
2023/12/03 10:15:16;;;;;;;;;;;12.20;39.00;;;12.40;42.00;101279.31;5047223;28;19931;-36
2023/12/03 10:17:44;;;;;;;;;;;12.20;39.10;;;12.35;41.69;101283.75;5051026;28;20391;-36
2023/12/03 10:20:22;;;;;;;;;;;12.20;39.20;;;12.30;41.72;101282.22;5054885;28;19925;-36
2023/12/03 10:22:51;;;;;;;;;;;12.10;39.20;;;12.28;42.65;101283.63;5054869;28;19979;-36
2023/12/03 10:25:32;;;;;;;;;;;12.10;39.30;;;12.26;41.99;101284.16;5054733;28;19948;-34
2023/12/03 10:28:01;;;;;;;;;;;12.10;39.40;;;12.21;42.84;101287.63;5054963;28;19976;-36
2023/12/03 10:30:30;;;;;;;;;;;12.00;39.40;;;12.19;42.29;101281.50;5055053;28;20340;-35
2023/12/03 10:32:58;;;;;;;;;;;12.00;39.40;;;12.17;42.29;101287.94;5054705;28;19958;-36
2023/12/03 10:35:27;;;;;;;;;;;12.00;39.40;;;12.17;41.93;101282.91;5054994;28;20322;-36
2023/12/03 10:37:55;;;;;;;;;;;12.00;39.50;;;12.15;41.65;101285.19;5054948;28;19924;-36
2023/12/03 10:40:23;;;;;;;;;;;11.90;39.50;;;12.14;42.38;101282.50;5055071;28;19925;-35
2023/12/03 10:42:52;;;;;;;;;;;11.90;39.50;;;12.12;42.40;101278.88;5054922;28;19975;-35
2023/12/03 10:45:20;;;;;;;;;;;11.90;39.50;;;12.09;42.92;101280.28;5047718;28;20365;-35
2023/12/03 10:47:48;;;;;;;;;;;11.90;39.60;;;12.14;42.38;101282.50;5055020;28;20311;-35
2023/12/03 10:50:16;;;;;;;;;;;11.90;39.60;;;12.15;42.06;101269.22;5047804;28;19982;-35
2023/12/03 10:52:44;;;;;;;;;;;11.90;39.70;;;12.16;42.52;101271.03;5055778;28;20372;-35
2023/12/03 10:55:12;;;;;;;;;;;12.00;39.60;;;12.18;42.90;101274.66;5055769;28;20324;-35
2023/12/03 10:57:46;;;;;;;;;;;12.00;39.70;;;12.19;42.21;101281.50;5055318;28;19932;-36
2023/12/03 11:00:17;;;;;;;;;;;12.00;39.70;;;12.23;42.17;101273.66;5054315;28;20106;-36
2023/12/03 11:02:46;;;;;;;;;;;12.00;39.70;;;12.25;42.50;101282.34;5054371;28;19955;-36
2023/12/03 11:05:22;;;;;;;;;;;12.00;39.60;;;12.17;42.14;101262.81;5046288;28;19960;-35
2023/12/03 11:07:51;;;;;;;;;;;12.10;39.80;;;12.28;42.55;101287.75;5054537;28;19924;-35
2023/12/03 11:10:18;;;;;;;;;;;12.10;39.70;;;12.28;42.43;101280.22;5046247;28;20398;-36
2023/12/03 11:12:46;;;;;;;;;;;12.10;39.60;;;12.31;41.92;101278.13;5054788;28;19971;-36
2023/12/03 11:15:16;;;;;;;;;;;12.10;39.60;;;12.30;43.13;101281.31;5051145;28;19929;-35